Clayton, California
Current Conditions -  °F | °C
As of 3:19 AM on Monday 20 Oct 2014 (Local Time) from KCCR Reporting Station
Few Clouds Few Clouds  
Wind Chill: 62°   Ceiling: Unl
Heat Index: 62°   Visibility: 10mi
Dew Point: 55°   Wind: 8mph
Humidity: 78%   Direction: 210°SSW
Pressure: 29.91"   Gusts: NA
Location:  37.94°N, 121.93°W
Report Text: KCCR 201019Z 21007KT 10SM FEW020 17/13 A2991 RMK AO2 T01670128
Loading
Personal Weather Stations






























Interactive Weather Map
Tropical Storm Tracking
New forecast layout! Learn more

10-Day Weather Forecast

Advertisements
Track Severe Weather on mobile